createdAt,value
2023-04-03T00:01:11.809Z,4.47
2023-04-03T00:03:38.579Z,4.25
2023-04-03T00:06:08.088Z,3.30
2023-04-03T00:08:35.024Z,5.18
2023-04-03T00:11:02.164Z,2.75
2023-04-03T00:13:29.357Z,4.65
2023-04-03T00:15:56.186Z,3.88
2023-04-03T00:18:23.118Z,3.88
2023-04-03T00:20:50.516Z,5.82
2023-04-03T00:23:17.381Z,3.67
2023-04-03T00:25:44.821Z,4.53
2023-04-03T00:28:12.073Z,6.10
2023-04-03T00:30:39.067Z,4.20
2023-04-03T00:33:06.106Z,3.08
2023-04-03T00:35:34.998Z,4.78
2023-04-03T00:38:02.008Z,3.70
2023-04-03T00:40:29.169Z,10.70
2023-04-03T00:43:00.162Z,4.18
2023-04-03T00:45:40.995Z,4.53
2023-04-03T00:48:11.032Z,5.40
2023-04-03T00:50:41.306Z,6.45
2023-04-03T00:53:11.911Z,4.20
2023-04-03T00:55:39.738Z,7.05
2023-04-03T00:58:08.253Z,2.88
2023-04-03T01:00:37.054Z,4.10
2023-04-03T01:03:04.477Z,4.60
2023-04-03T01:05:31.263Z,5.35
2023-04-03T01:07:58.992Z,4.40
2023-04-03T01:10:26.881Z,3.33
2023-04-03T01:12:53.660Z,3.42
2023-04-03T01:15:24.364Z,2.88
2023-04-03T01:18:01.698Z,4.95
2023-04-03T01:20:37.907Z,5.07
2023-04-03T01:23:11.123Z,3.65
2023-04-03T01:25:37.909Z,5.10
2023-04-03T01:28:06.897Z,3.35
2023-04-03T01:31:00.686Z,4.40
2023-04-03T01:33:27.468Z,6.18
2023-04-03T01:35:54.238Z,3.70
2023-04-03T01:38:21.655Z,2.70
2023-04-03T01:40:48.342Z,5.28
2023-04-03T01:43:15.352Z,3.55
2023-04-03T01:45:42.128Z,3.45
2023-04-03T01:48:08.964Z,3.20
2023-04-03T01:50:35.996Z,3.85
2023-04-03T01:53:02.850Z,4.22
2023-04-03T01:55:29.574Z,2.55
2023-04-03T01:57:56.313Z,4.97
2023-04-03T02:00:23.100Z,4.43
2023-04-03T02:02:49.822Z,5.50
2023-04-03T02:05:16.737Z,5.30
2023-04-03T02:07:43.497Z,3.97
2023-04-03T02:10:10.653Z,3.95
2023-04-03T02:12:37.333Z,6.53
2023-04-03T02:15:04.502Z,4.95
2023-04-03T02:17:31.321Z,3.65
2023-04-03T02:19:58.130Z,3.75
2023-04-03T02:22:24.866Z,5.97
2023-04-03T02:24:52.711Z,2.70
2023-04-03T02:27:19.453Z,3.55
2023-04-03T02:29:46.369Z,3.35
2023-04-03T02:32:13.109Z,5.90
2023-04-03T02:34:39.791Z,5.55
2023-04-03T02:37:06.558Z,3.67
2023-04-03T02:39:33.356Z,4.32
2023-04-03T02:42:00.220Z,6.63
2023-04-03T02:44:26.944Z,4.45
2023-04-03T02:46:53.750Z,5.20
2023-04-03T02:49:20.672Z,4.88
2023-04-03T02:51:48.523Z,6.05
2023-04-03T02:54:15.530Z,5.35
2023-04-03T02:56:42.285Z,5.45
2023-04-03T02:59:09.005Z,3.60
2023-04-03T03:01:36.730Z,4.30
2023-04-03T03:04:03.774Z,6.20
2023-04-03T03:06:30.960Z,6.30
2023-04-03T03:08:57.688Z,4.30
2023-04-03T03:11:24.491Z,4.70
2023-04-03T03:13:51.403Z,6.43
2023-04-03T03:16:18.267Z,6.40
2023-04-03T03:18:45.028Z,3.28
2023-04-03T03:21:11.989Z,3.95
2023-04-03T03:23:38.766Z,5.85
2023-04-03T03:26:08.162Z,4.35
2023-04-03T03:28:36.330Z,4.63
2023-04-03T03:31:03.530Z,3.58
2023-04-03T03:33:30.843Z,5.47
2023-04-03T03:35:57.726Z,6.75
2023-04-03T03:38:25.260Z,6.18
2023-04-03T03:40:52.880Z,6.43
2023-04-03T03:43:21.106Z,6.20
2023-04-03T03:45:52.316Z,6.63
2023-04-03T03:48:19.598Z,6.03
2023-04-03T03:50:46.445Z,5.30
2023-04-03T03:53:13.200Z,5.35
2023-04-03T03:55:40.033Z,4.28
2023-04-03T03:58:06.756Z,6.72
2023-04-03T04:00:33.845Z,5.38
2023-04-03T04:03:01.527Z,6.03
2023-04-03T04:05:28.456Z,4.88
2023-04-03T04:07:55.174Z,4.45
2023-04-03T04:10:22.100Z,6.28
2023-04-03T04:12:50.195Z,7.40
2023-04-03T04:15:17.249Z,4.68
2023-04-03T04:17:44.051Z,4.78
2023-04-03T04:20:11.602Z,5.50
2023-04-03T04:22:39.809Z,10.02
2023-04-03T04:25:06.729Z,6.15
2023-04-03T04:27:33.477Z,5.10
2023-04-03T04:30:00.299Z,5.40
2023-04-03T04:32:27.112Z,6.22
2023-04-03T04:34:53.867Z,5.82
2023-04-03T04:37:20.853Z,5.50
2023-04-03T04:39:47.551Z,4.78
2023-04-03T04:42:16.736Z,5.68
2023-04-03T04:44:44.836Z,5.57
2023-04-03T04:47:11.602Z,6.07
2023-04-03T04:49:38.385Z,7.80
2023-04-03T04:52:05.394Z,5.63
2023-04-03T04:54:32.375Z,8.35
2023-04-03T04:56:59.219Z,5.70
2023-04-03T04:59:26.175Z,7.43
2023-04-03T05:01:52.909Z,5.10
2023-04-03T05:04:19.693Z,5.00
2023-04-03T05:06:46.443Z,6.95
2023-04-03T05:09:13.341Z,7.38
2023-04-03T05:11:40.366Z,6.38
2023-04-03T05:14:07.625Z,9.25
2023-04-03T05:16:35.092Z,4.85
2023-04-03T05:19:01.976Z,5.63
2023-04-03T05:21:33.053Z,7.10
2023-04-03T05:24:03.524Z,4.82
2023-04-03T05:26:31.704Z,7.45
2023-04-03T05:28:58.954Z,6.60
2023-04-03T05:31:25.808Z,8.55
2023-04-03T05:33:52.825Z,6.70
2023-04-03T05:36:19.919Z,8.30
2023-04-03T05:38:47.265Z,7.55
2023-04-03T05:41:15.238Z,6.22
2023-04-03T05:43:42.739Z,6.97
2023-04-03T05:46:21.318Z,4.95
2023-04-03T05:48:48.107Z,7.65
2023-04-03T05:51:21.204Z,6.03
2023-04-03T05:53:48.949Z,6.43
2023-04-03T05:56:15.713Z,6.75
2023-04-03T05:58:42.435Z,7.63
2023-04-03T06:01:09.235Z,7.55
2023-04-03T06:03:38.560Z,7.53
2023-04-03T06:06:06.861Z,7.28
2023-04-03T06:08:34.047Z,7.85
2023-04-03T06:11:00.841Z,5.65
2023-04-03T06:13:27.645Z,6.93
2023-04-03T06:15:54.436Z,8.43
2023-04-03T06:18:21.542Z,6.30
2023-04-03T06:20:48.396Z,6.68
2023-04-03T06:23:15.137Z,9.60
2023-04-03T06:25:43.005Z,7.28
2023-04-03T06:28:11.166Z,6.43
2023-04-03T06:30:38.944Z,8.98
2023-04-03T06:33:06.057Z,8.95
2023-04-03T06:35:33.128Z,5.45
2023-04-03T06:37:59.931Z,9.93
2023-04-03T06:40:27.571Z,8.88
2023-04-03T06:42:54.457Z,8.90
2023-04-03T06:45:22.558Z,8.80
2023-04-03T06:47:49.403Z,7.63
2023-04-03T06:50:16.253Z,8.10
2023-04-03T06:52:43.398Z,10.73
2023-04-03T06:55:11.066Z,9.07
2023-04-03T06:57:38.693Z,8.00
2023-04-03T07:00:08.304Z,7.72
2023-04-03T07:02:35.132Z,11.35
2023-04-03T07:05:01.983Z,8.32
2023-04-03T07:07:28.704Z,7.80
2023-04-03T07:09:55.704Z,8.45
2023-04-03T07:12:22.432Z,7.93
2023-04-03T07:14:49.200Z,7.10
2023-04-03T07:17:16.059Z,6.75
2023-04-03T07:19:42.870Z,5.13
2023-04-03T07:22:09.968Z,6.05
2023-04-03T07:24:36.902Z,8.52
2023-04-03T07:27:04.183Z,7.40
2023-04-03T07:29:31.360Z,4.78
2023-04-03T07:31:58.278Z,4.53
2023-04-03T07:34:25.396Z,7.50
2023-04-03T07:37:53.881Z,7.32
2023-04-03T07:40:20.887Z,7.05
2023-04-03T07:42:47.734Z,4.43
2023-04-03T07:45:14.555Z,7.95
2023-04-03T07:47:41.502Z,7.03
2023-04-03T07:50:08.920Z,5.47
2023-04-03T07:52:36.076Z,7.30
2023-04-03T07:55:02.874Z,8.52
2023-04-03T07:57:29.618Z,6.28
2023-04-03T07:59:56.326Z,6.80
2023-04-03T08:02:23.051Z,7.25
2023-04-03T08:04:49.950Z,7.97
2023-04-03T08:07:16.886Z,6.38
2023-04-03T08:09:43.567Z,7.28
2023-04-03T08:12:12.475Z,6.10
2023-04-03T08:14:39.338Z,5.97
2023-04-03T08:17:06.467Z,5.75
2023-04-03T08:19:33.303Z,5.63
2023-04-03T08:22:01.424Z,7.28
2023-04-03T08:24:28.178Z,8.48
2023-04-03T08:26:55.440Z,6.90
2023-04-03T08:29:22.829Z,5.07
2023-04-03T08:31:51.105Z,6.95
2023-04-03T08:34:18.365Z,6.43
2023-04-03T08:36:45.430Z,5.75
2023-04-03T08:39:13.004Z,6.10
2023-04-03T08:41:44.690Z,5.57
2023-04-03T08:44:31.242Z,5.07
2023-04-03T08:47:04.247Z,5.25
2023-04-03T08:49:39.122Z,5.95
2023-04-03T08:52:12.196Z,8.10
2023-04-03T08:54:54.716Z,5.28
2023-04-03T08:57:30.739Z,6.53
2023-04-03T09:00:01.511Z,5.75
2023-04-03T09:02:35.065Z,5.82
2023-04-03T09:05:10.967Z,5.13
2023-04-03T09:07:44.386Z,4.57
2023-04-03T09:10:14.350Z,3.70
2023-04-03T09:12:46.905Z,7.22
2023-04-03T09:15:20.071Z,4.55
2023-04-03T09:18:05.448Z,7.43
2023-04-03T09:20:44.182Z,5.97
2023-04-03T09:23:16.502Z,3.80
2023-04-03T09:25:44.769Z,2.60
2023-04-03T09:28:11.762Z,4.30
2023-04-03T09:30:39.713Z,4.50
2023-04-03T09:33:08.190Z,5.55
2023-04-03T09:35:47.522Z,3.92
2023-04-03T09:38:16.964Z,2.42
2023-04-03T09:41:04.638Z,2.20
2023-04-03T09:43:33.700Z,3.90
2023-04-03T09:46:34.958Z,3.72
2023-04-03T09:49:09.472Z,4.00
2023-04-03T09:51:37.668Z,3.60
2023-04-03T09:54:33.465Z,2.88
2023-04-03T09:57:14.281Z,3.88
2023-04-03T10:00:01.977Z,2.00
2023-04-03T10:02:40.870Z,2.03
2023-04-03T10:05:26.388Z,3.42
2023-04-03T10:08:01.667Z,3.53
2023-04-03T10:10:30.610Z,2.97
2023-04-03T10:13:20.657Z,4.78
2023-04-03T10:16:01.015Z,3.88
2023-04-03T10:18:33.804Z,4.00
2023-04-03T10:21:17.571Z,3.63
2023-04-03T10:24:02.054Z,4.33
2023-04-03T10:26:40.465Z,3.90
2023-04-03T10:29:22.107Z,2.13
2023-04-03T10:32:13.841Z,4.40
2023-04-03T10:34:54.703Z,2.30
2023-04-03T10:37:46.782Z,2.20
2023-04-03T10:40:52.260Z,3.08
2023-04-03T10:43:37.421Z,2.75
2023-04-03T10:46:22.105Z,2.95
2023-04-03T10:48:55.338Z,2.92
2023-04-03T10:51:49.340Z,2.80
2023-04-03T10:54:27.015Z,4.47
2023-04-03T10:57:11.974Z,1.55
2023-04-03T10:59:45.846Z,2.10
2023-04-03T11:02:31.718Z,2.45
2023-04-03T11:05:06.129Z,1.90
2023-04-03T11:07:40.722Z,2.30
2023-04-03T11:10:16.059Z,2.40
2023-04-03T11:12:59.424Z,3.33
2023-04-03T11:15:27.942Z,3.70
2023-04-03T11:17:59.019Z,1.50
2023-04-03T11:20:34.234Z,3.47
2023-04-03T11:23:15.236Z,2.88
2023-04-03T11:25:45.683Z,2.88
2023-04-03T11:28:16.092Z,2.35
2023-04-03T11:30:53.631Z,2.60
2023-04-03T11:33:50.040Z,3.17
2023-04-03T11:36:26.555Z,1.83
2023-04-03T11:39:08.749Z,2.63
2023-04-03T11:41:36.018Z,1.10
2023-04-03T11:44:28.282Z,1.80
2023-04-03T11:46:58.444Z,2.72
2023-04-03T11:50:06.215Z,2.60
2023-04-03T11:52:44.652Z,2.45
2023-04-03T11:55:21.246Z,2.10
2023-04-03T11:58:00.011Z,2.15
2023-04-03T12:00:48.047Z,4.18
2023-04-03T12:03:27.030Z,1.23
2023-04-03T12:05:58.144Z,1.38
2023-04-03T12:08:30.262Z,1.92
2023-04-03T12:11:12.073Z,2.22
2023-04-03T12:16:19.867Z,1.60
2023-04-03T12:18:56.359Z,1.55
2023-04-03T12:21:30.362Z,1.42
2023-04-03T12:24:03.631Z,2.25
2023-04-03T12:27:02.758Z,1.60
2023-04-03T12:29:33.191Z,0.90
2023-04-03T12:32:24.219Z,1.88
2023-04-03T12:34:57.340Z,0.80
2023-04-03T12:37:42.747Z,3.45
2023-04-03T12:40:47.624Z,2.25
2023-04-03T12:43:37.927Z,2.70
2023-04-03T12:46:04.885Z,1.30
2023-04-03T12:48:39.525Z,2.53
2023-04-03T12:51:06.733Z,1.92
2023-04-03T12:53:35.751Z,1.35
2023-04-03T12:56:31.965Z,1.67
2023-04-03T12:59:22.455Z,3.08
2023-04-03T13:02:00.474Z,2.80
2023-04-03T13:04:29.769Z,2.28
2023-04-03T13:06:56.620Z,1.35
2023-04-03T13:09:24.500Z,3.17
2023-04-03T13:11:58.083Z,4.15
2023-04-03T13:14:29.183Z,1.92
2023-04-03T13:17:15.796Z,1.70
2023-04-03T13:19:44.476Z,1.95
2023-04-03T13:22:32.313Z,2.38
2023-04-03T13:25:04.101Z,3.20
2023-04-03T13:27:32.405Z,3.85
2023-04-03T13:30:01.711Z,1.50
2023-04-03T13:32:30.725Z,1.90
2023-04-03T13:35:00.453Z,3.28
2023-04-03T13:37:34.612Z,1.63
2023-04-03T13:40:07.497Z,3.88
2023-04-03T13:42:37.588Z,2.53
2023-04-03T13:45:20.834Z,1.80
2023-04-03T13:47:49.848Z,2.60
2023-04-03T13:50:23.673Z,2.22
2023-04-03T13:52:55.351Z,2.38
2023-04-03T13:58:11.972Z,4.25
2023-04-03T14:01:01.502Z,2.08
2023-04-03T14:03:33.595Z,2.75
2023-04-03T14:06:02.155Z,3.80
2023-04-03T14:08:40.146Z,3.70
2023-04-03T14:11:21.950Z,3.28
2023-04-03T14:13:49.180Z,3.13
2023-04-03T14:16:24.626Z,5.15
2023-04-03T14:18:52.425Z,2.75
2023-04-03T14:21:20.919Z,3.25
2023-04-03T14:23:48.325Z,4.05
2023-04-03T14:26:24.422Z,2.33
2023-04-03T14:28:54.565Z,1.88
2023-04-03T14:31:22.250Z,4.72
2023-04-03T14:33:49.578Z,4.40
2023-04-03T14:36:27.902Z,3.38
2023-04-03T14:38:55.687Z,2.53
2023-04-03T14:41:25.353Z,2.10
2023-04-03T14:43:52.727Z,4.10
2023-04-03T14:46:35.190Z,3.90
2023-04-03T14:49:17.023Z,3.17
2023-04-03T14:51:43.799Z,3.10
2023-04-03T14:54:20.434Z,3.20
2023-04-03T14:56:48.858Z,3.20
2023-04-03T14:59:16.392Z,2.92
2023-04-03T15:01:43.209Z,2.25
2023-04-03T15:04:16.084Z,3.03
2023-04-03T15:06:43.670Z,3.75
2023-04-03T15:09:16.230Z,4.43
2023-04-03T15:11:42.981Z,1.42
2023-04-03T15:14:10.577Z,4.75
2023-04-03T15:16:37.382Z,1.58
2023-04-03T15:19:04.366Z,2.58
2023-04-03T15:21:31.267Z,2.88
2023-04-03T15:23:58.007Z,2.58
2023-04-03T15:26:25.440Z,4.82
2023-04-03T15:28:52.359Z,2.72
2023-04-03T15:31:19.208Z,6.22
2023-04-03T15:33:46.028Z,2.88
2023-04-03T15:38:44.046Z,5.00
2023-04-03T15:41:10.900Z,2.55
2023-04-03T15:43:37.723Z,2.92
2023-04-03T15:46:04.665Z,1.73
2023-04-03T15:48:31.605Z,3.20
2023-04-03T15:50:59.225Z,3.30
2023-04-03T15:53:26.114Z,3.28
2023-04-03T15:55:52.877Z,2.72
2023-04-03T15:58:19.669Z,3.22
2023-04-03T16:00:46.596Z,3.70
2023-04-03T16:03:18.025Z,3.42
2023-04-03T16:05:45.577Z,2.95
2023-04-03T16:08:13.150Z,4.53
2023-04-03T16:10:40.964Z,2.55
2023-04-03T16:13:07.859Z,3.83
2023-04-03T16:15:36.196Z,3.30
2023-04-03T16:18:03.712Z,2.05
2023-04-03T16:20:31.054Z,4.43
2023-04-03T16:22:59.713Z,3.28
2023-04-03T16:25:27.171Z,3.70
2023-04-03T16:27:54.013Z,3.13
2023-04-03T16:30:20.907Z,2.78
2023-04-03T16:32:47.796Z,2.95
2023-04-03T16:35:14.576Z,2.72
2023-04-03T16:37:41.374Z,4.75
2023-04-03T16:40:09.595Z,4.05
2023-04-03T16:42:37.883Z,5.72
2023-04-03T16:45:06.848Z,3.20
2023-04-03T16:47:33.838Z,3.13
2023-04-03T16:50:01.230Z,3.13
2023-04-03T16:52:28.366Z,3.35
2023-04-03T16:54:56.654Z,3.65
2023-04-03T16:57:25.695Z,3.33
2023-04-03T16:59:53.513Z,3.50
2023-04-03T17:02:22.660Z,2.65
2023-04-03T17:04:50.849Z,5.25
2023-04-03T17:07:22.948Z,3.42
2023-04-03T17:09:50.360Z,3.90
2023-04-03T17:12:17.170Z,6.00
2023-04-03T17:14:44.332Z,5.80
2023-04-03T17:17:11.815Z,3.83
2023-04-03T17:19:39.270Z,3.45
2023-04-03T17:22:06.245Z,4.45
2023-04-03T17:24:33.819Z,4.35
2023-04-03T17:27:00.561Z,3.33
2023-04-03T17:29:27.286Z,4.45
2023-04-03T17:31:54.141Z,2.15
2023-04-03T17:34:20.942Z,4.22
2023-04-03T17:36:47.886Z,3.05
2023-04-03T17:39:14.865Z,4.32
2023-04-03T17:41:41.716Z,3.72
2023-04-03T17:44:08.510Z,4.47
2023-04-03T17:46:35.541Z,5.68
2023-04-03T17:49:03.316Z,4.70
2023-04-03T17:51:30.223Z,6.03
2023-04-03T17:53:57.202Z,3.80
2023-04-03T17:56:26.975Z,4.68
2023-04-03T17:58:55.420Z,3.80
2023-04-03T18:01:33.906Z,5.03
2023-04-03T18:04:04.392Z,3.42
2023-04-03T18:06:36.820Z,5.38
2023-04-03T18:09:16.065Z,5.68
2023-04-03T18:11:44.107Z,5.07
2023-04-03T18:14:13.095Z,3.97
2023-04-03T18:16:39.854Z,5.43
2023-04-03T18:19:21.982Z,3.83
2023-04-03T18:21:51.190Z,6.20
2023-04-03T18:24:20.295Z,5.25
2023-04-03T18:26:51.390Z,3.97
2023-04-03T18:29:18.523Z,7.20
2023-04-03T18:31:48.081Z,6.90
2023-04-03T18:34:14.855Z,4.20
2023-04-03T18:36:41.760Z,7.00
2023-04-03T18:39:08.950Z,5.07
2023-04-03T18:41:37.339Z,5.43
2023-04-03T18:44:06.849Z,6.30
2023-04-03T18:46:34.095Z,4.15
2023-04-03T18:49:01.110Z,5.05
2023-04-03T18:51:27.999Z,5.93
2023-04-03T18:53:54.744Z,3.17
2023-04-03T18:56:22.432Z,7.80
2023-04-03T18:58:49.357Z,5.45
2023-04-03T19:01:16.635Z,4.40
2023-04-03T19:03:43.803Z,6.57
2023-04-03T19:06:10.843Z,5.35
2023-04-03T19:08:37.627Z,6.35
2023-04-03T19:11:04.601Z,5.43
2023-04-03T19:13:32.514Z,4.95
2023-04-03T19:15:59.970Z,4.68
2023-04-03T19:18:27.283Z,4.82
2023-04-03T19:20:57.660Z,4.68
2023-04-03T19:23:25.430Z,5.63
2023-04-03T19:26:03.998Z,4.90
2023-04-03T19:28:31.167Z,4.85
2023-04-03T19:30:58.509Z,4.75
2023-04-03T19:33:26.020Z,5.53
2023-04-03T19:35:53.041Z,5.57
2023-04-03T19:38:19.899Z,8.02
2023-04-03T19:40:46.798Z,5.75
2023-04-03T19:43:15.108Z,5.22
2023-04-03T19:45:43.794Z,4.88
2023-04-03T19:48:10.867Z,4.85
2023-04-03T19:50:37.870Z,4.63
2023-04-03T19:53:04.887Z,6.95
2023-04-03T19:55:31.744Z,5.45
2023-04-03T19:57:59.798Z,6.28
2023-04-03T20:00:26.996Z,4.18
2023-04-03T20:02:53.961Z,5.45
2023-04-03T20:05:21.295Z,3.67
2023-04-03T20:07:48.119Z,4.13
2023-04-03T20:10:15.727Z,6.88
2023-04-03T20:12:42.835Z,3.75
2023-04-03T20:15:10.719Z,6.40
2023-04-03T20:17:38.173Z,4.80
2023-04-03T20:20:05.973Z,4.10
2023-04-03T20:22:33.698Z,4.20
2023-04-03T20:25:06.352Z,5.72
2023-04-03T20:27:34.978Z,6.55
2023-04-03T20:30:04.033Z,5.30
2023-04-03T20:32:31.280Z,4.57
2023-04-03T20:35:04.335Z,4.93
2023-04-03T20:37:32.344Z,7.00
2023-04-03T20:39:59.067Z,4.65
2023-04-03T20:42:26.122Z,4.45
2023-04-03T20:44:52.916Z,5.60
2023-04-03T20:47:19.691Z,5.95
2023-04-03T20:49:46.505Z,4.55
2023-04-03T20:52:13.250Z,3.80
2023-04-03T20:54:40.775Z,5.88
2023-04-03T20:57:07.594Z,7.45
2023-04-03T20:59:35.192Z,4.43
2023-04-03T21:02:01.986Z,3.70
2023-04-03T21:04:36.658Z,4.70
2023-04-03T21:07:41.298Z,3.45
2023-04-03T21:10:46.462Z,5.13
2023-04-03T21:13:50.645Z,6.13
2023-04-03T21:16:17.305Z,5.85
2023-04-03T21:19:06.099Z,3.88
2023-04-03T21:21:36.914Z,4.30
2023-04-03T21:24:06.700Z,6.18
2023-04-03T21:26:34.408Z,4.50
2023-04-03T21:29:01.601Z,3.97
2023-04-03T21:31:47.621Z,5.40
2023-04-03T21:34:15.406Z,5.75
2023-04-03T21:36:42.416Z,4.85
2023-04-03T21:39:09.207Z,4.60
2023-04-03T21:41:35.941Z,6.07
2023-04-03T21:44:03.070Z,5.18
2023-04-03T21:46:29.787Z,4.10
2023-04-03T21:48:56.726Z,4.38
2023-04-03T21:51:23.478Z,5.28
2023-04-03T21:53:53.820Z,5.00
2023-04-03T21:56:27.224Z,3.67
2023-04-03T21:58:53.976Z,4.57
2023-04-03T22:01:21.594Z,5.13
2023-04-03T22:03:48.407Z,4.85
2023-04-03T22:06:16.697Z,7.45
2023-04-03T22:08:43.835Z,3.85
2023-04-03T22:11:13.434Z,3.42
2023-04-03T22:13:41.198Z,3.20
2023-04-03T22:16:09.184Z,5.97
2023-04-03T22:18:36.347Z,4.70
2023-04-03T22:21:03.232Z,6.18
2023-04-03T22:23:30.111Z,5.20
2023-04-03T22:25:58.784Z,7.20
2023-04-03T22:28:27.069Z,5.88
2023-04-03T22:30:54.515Z,5.15
2023-04-03T22:33:21.395Z,4.38
2023-04-03T22:35:49.439Z,7.28
2023-04-03T22:38:16.706Z,4.95
2023-04-03T22:40:44.796Z,6.28
2023-04-03T22:43:12.367Z,4.75
2023-04-03T22:45:48.751Z,3.97
2023-04-03T22:48:15.519Z,5.40
2023-04-03T22:50:42.931Z,7.18
2023-04-03T22:53:10.460Z,6.13
2023-04-03T22:55:38.168Z,6.75
2023-04-03T22:58:05.638Z,4.95
2023-04-03T23:00:32.552Z,6.93
2023-04-03T23:03:01.018Z,5.22
2023-04-03T23:05:29.184Z,4.85
2023-04-03T23:07:56.052Z,3.97
2023-04-03T23:10:23.178Z,8.13
2023-04-03T23:12:49.881Z,6.95
2023-04-03T23:15:18.535Z,6.25
2023-04-03T23:17:48.523Z,4.80
2023-04-03T23:20:15.570Z,8.00
2023-04-03T23:22:45.654Z,8.82
2023-04-03T23:25:12.428Z,9.75
2023-04-03T23:27:39.173Z,7.65
2023-04-03T23:30:07.396Z,5.00
2023-04-03T23:32:34.230Z,8.45
2023-04-03T23:35:00.929Z,7.95
2023-04-03T23:37:27.696Z,5.60
2023-04-03T23:39:54.515Z,6.47
2023-04-03T23:42:21.611Z,5.70
2023-04-03T23:44:48.285Z,8.73
2023-04-03T23:47:14.935Z,9.15
2023-04-03T23:49:41.667Z,6.72
2023-04-03T23:52:08.414Z,10.88
2023-04-03T23:54:35.442Z,9.07
2023-04-03T23:57:02.121Z,10.70
2023-04-03T23:59:30.824Z,9.55
